Weather at Long Alango Airstrip

Public forecast

Using degrees Celsius for public forecast. Weather courtesy of forecast.io.

Closest aviation weather report (METAR) to Long Alango Airstrip

Closest report is Miri Airport, 139.5 nm (258.3 km) NW.

2024/05/21 06:00 (retrieved 51 minutes ago)

WBGR 210600Z 30005KT 250V350 9999 FEW015CB SCT016 32/26 Q1006

Closest aviation forecast (TAF) to Long Alango Airstrip

Closest forecast is Miri Airport, 139.5 nm (258.3 km) NW.

2024/05/21 06:00 (retrieved 51 minutes ago)

TAF WBGR 210500Z 2106/2206 VRB03KT 9999 FEW016 TEMPO 2108/2112 32010KT 5000 TSRA FEW015CB SCT016